createdAt,value
2023-02-23T00:01:51.499Z,11.23
2023-02-23T00:04:18.736Z,11.30
2023-02-23T00:06:45.671Z,11.25
2023-02-23T00:09:22.867Z,11.36
2023-02-23T00:11:57.184Z,11.30
2023-02-23T00:14:29.092Z,11.28
2023-02-23T00:16:56.421Z,11.22
2023-02-23T00:19:24.739Z,11.20
2023-02-23T00:21:52.092Z,11.14
2023-02-23T00:24:20.424Z,11.10
2023-02-23T00:26:51.078Z,11.03
2023-02-23T00:29:21.002Z,11.03
2023-02-23T00:31:49.250Z,10.96
2023-02-23T00:34:20.978Z,10.97
2023-02-23T00:36:55.109Z,10.97
2023-02-23T00:39:26.431Z,10.95
2023-02-23T00:41:55.341Z,10.96
2023-02-23T00:44:23.698Z,10.92
2023-02-23T00:46:51.700Z,10.89
2023-02-23T00:49:20.360Z,10.92
2023-02-23T00:51:47.583Z,10.87
2023-02-23T00:54:15.852Z,10.79
2023-02-23T00:56:42.605Z,10.79
2023-02-23T00:59:10.080Z,10.85
2023-02-23T01:01:38.394Z,10.81
2023-02-23T01:04:07.106Z,10.82
2023-02-23T01:06:37.245Z,10.82
2023-02-23T01:09:11.493Z,10.76
2023-02-23T01:11:38.607Z,10.77
2023-02-23T01:14:05.211Z,10.81
2023-02-23T01:16:33.747Z,10.82
2023-02-23T01:19:03.515Z,10.88
2023-02-23T01:21:36.259Z,10.89
2023-02-23T01:24:04.160Z,10.80
2023-02-23T01:26:36.249Z,10.85
2023-02-23T01:29:08.811Z,10.84
2023-02-23T01:31:39.321Z,10.81
2023-02-23T01:34:07.131Z,10.81
2023-02-23T01:36:38.935Z,10.89
2023-02-23T01:39:08.549Z,11.00
2023-02-23T01:41:36.727Z,10.95
2023-02-23T01:44:07.903Z,10.97
2023-02-23T01:46:39.105Z,10.89
2023-02-23T01:49:10.515Z,10.99
2023-02-23T01:51:43.004Z,10.95
2023-02-23T01:54:16.036Z,10.92
2023-02-23T01:56:49.156Z,11.02
2023-02-23T01:59:17.756Z,10.91
2023-02-23T02:01:45.172Z,11.00
2023-02-23T02:04:16.806Z,10.97
2023-02-23T02:06:45.797Z,11.04
2023-02-23T02:09:19.470Z,10.98
2023-02-23T02:11:54.053Z,10.98
2023-02-23T02:14:30.762Z,10.91
2023-02-23T02:17:25.425Z,10.76
2023-02-23T02:20:14.786Z,10.78
2023-02-23T02:23:08.374Z,10.93
2023-02-23T02:26:05.141Z,11.00
2023-02-23T02:28:50.423Z,10.81
2023-02-23T02:32:01.401Z,10.83
2023-02-23T02:35:11.421Z,10.89
2023-02-23T02:37:48.563Z,10.85
2023-02-23T02:40:28.422Z,10.85
2023-02-23T02:43:13.032Z,10.93
2023-02-23T02:45:43.072Z,10.88
2023-02-23T02:48:19.615Z,10.81
2023-02-23T02:50:55.575Z,10.86
2023-02-23T02:53:55.816Z,10.81
2023-02-23T02:56:26.371Z,10.87
2023-02-23T02:58:54.704Z,10.91
2023-02-23T03:01:40.196Z,10.97
2023-02-23T03:04:55.329Z,10.80
2023-02-23T03:07:50.267Z,10.99
2023-02-23T03:10:42.599Z,11.03
2023-02-23T03:13:43.236Z,10.94
2023-02-23T03:17:08.320Z,11.03
2023-02-23T03:20:04.175Z,10.97
2023-02-23T03:22:56.561Z,10.89
2023-02-23T03:25:47.877Z,10.82
2023-02-23T03:28:48.292Z,10.81
2023-02-23T03:31:45.739Z,10.83
2023-02-23T03:34:38.616Z,10.86
2023-02-23T03:37:33.483Z,10.79
2023-02-23T03:40:26.963Z,10.81
2023-02-23T03:43:16.340Z,10.73
2023-02-23T03:46:04.258Z,10.82
2023-02-23T03:48:55.058Z,10.86
2023-02-23T03:51:43.947Z,10.89
2023-02-23T03:54:37.019Z,10.83
2023-02-23T03:57:26.907Z,10.82
2023-02-23T04:00:18.387Z,10.89
2023-02-23T04:03:08.747Z,10.97
2023-02-23T04:05:58.448Z,10.84
2023-02-23T04:08:52.123Z,10.82
2023-02-23T04:12:04.341Z,10.91
2023-02-23T04:14:41.881Z,11.05
2023-02-23T04:17:10.362Z,11.03
2023-02-23T04:19:37.210Z,10.69
2023-02-23T04:22:03.856Z,10.64
2023-02-23T04:24:30.469Z,10.26
2023-02-23T04:26:57.074Z,10.50
2023-02-23T04:29:24.120Z,10.53
2023-02-23T04:31:50.858Z,10.76
2023-02-23T04:34:17.589Z,10.73
2023-02-23T04:36:44.164Z,10.76
2023-02-23T04:39:10.781Z,10.85
2023-02-23T04:41:37.503Z,10.38
2023-02-23T04:44:04.864Z,10.60
2023-02-23T04:46:31.625Z,10.40
2023-02-23T04:48:58.273Z,10.66
2023-02-23T04:51:30.079Z,10.66
2023-02-23T04:53:56.637Z,10.81
2023-02-23T04:56:23.288Z,10.67
2023-02-23T04:58:50.400Z,10.64
2023-02-23T05:01:17.843Z,10.74
2023-02-23T05:03:44.652Z,10.92
2023-02-23T05:06:12.669Z,10.90
2023-02-23T05:08:39.417Z,10.79
2023-02-23T05:11:07.310Z,10.67
2023-02-23T05:13:34.361Z,10.63
2023-02-23T05:16:01.130Z,10.53
2023-02-23T05:18:27.811Z,10.52
2023-02-23T05:21:02.174Z,10.51
2023-02-23T05:23:28.816Z,10.33
2023-02-23T05:26:01.267Z,10.42
2023-02-23T05:28:27.924Z,10.49
2023-02-23T05:30:54.684Z,10.51
2023-02-23T05:33:21.805Z,10.44
2023-02-23T05:35:48.948Z,10.35
2023-02-23T05:38:15.622Z,10.40
2023-02-23T05:40:42.309Z,10.34
2023-02-23T05:43:08.968Z,10.30
2023-02-23T05:45:40.359Z,10.37
2023-02-23T05:48:07.793Z,10.42
2023-02-23T05:50:34.578Z,10.42
2023-02-23T05:53:01.252Z,10.40
2023-02-23T05:55:28.242Z,10.36
2023-02-23T05:57:55.436Z,10.32
2023-02-23T06:00:22.470Z,10.48
2023-02-23T06:02:52.282Z,10.50
2023-02-23T06:05:19.413Z,10.47
2023-02-23T06:07:46.876Z,10.47
2023-02-23T06:10:14.390Z,10.44
2023-02-23T06:12:41.122Z,10.45
2023-02-23T06:15:08.429Z,10.45
2023-02-23T06:17:35.844Z,10.40
2023-02-23T06:20:04.853Z,10.43
2023-02-23T06:22:31.573Z,10.43
2023-02-23T06:24:58.366Z,10.27
2023-02-23T06:27:26.217Z,10.33
2023-02-23T06:29:52.902Z,10.32
2023-02-23T06:32:19.615Z,10.59
2023-02-23T06:34:51.078Z,10.66
2023-02-23T06:37:17.819Z,10.48
2023-02-23T06:39:44.719Z,10.54
2023-02-23T06:42:11.300Z,10.49
2023-02-23T06:44:38.049Z,10.54
2023-02-23T06:47:06.060Z,10.60
2023-02-23T06:49:33.051Z,10.61
2023-02-23T06:52:00.123Z,10.66
2023-02-23T06:54:26.781Z,10.68
2023-02-23T06:56:56.594Z,10.70
2023-02-23T06:59:24.236Z,10.88
2023-02-23T07:01:51.075Z,10.85
2023-02-23T07:04:17.924Z,10.68
2023-02-23T07:06:44.638Z,10.74
2023-02-23T07:09:11.347Z,10.71
2023-02-23T07:11:38.060Z,10.83
2023-02-23T07:14:04.647Z,10.82
2023-02-23T07:16:32.121Z,10.77
2023-02-23T07:18:58.990Z,10.77
2023-02-23T07:21:25.630Z,10.82
2023-02-23T07:23:52.219Z,10.79
2023-02-23T07:26:18.867Z,11.06
2023-02-23T07:28:45.604Z,11.00
2023-02-23T07:31:12.315Z,10.96
2023-02-23T07:33:38.965Z,10.95
2023-02-23T07:36:05.882Z,10.97
2023-02-23T07:38:32.781Z,10.93
2023-02-23T07:40:59.653Z,10.81
2023-02-23T07:43:26.290Z,10.62
2023-02-23T07:45:53.005Z,10.43
2023-02-23T07:48:20.643Z,10.58
2023-02-23T07:50:47.917Z,10.64
2023-02-23T07:53:15.185Z,10.59
2023-02-23T07:55:41.847Z,10.55
2023-02-23T07:58:08.997Z,10.66
2023-02-23T08:00:36.912Z,10.70
2023-02-23T08:03:03.603Z,10.75
2023-02-23T08:05:30.273Z,10.68
2023-02-23T08:07:58.511Z,10.50
2023-02-23T08:10:25.735Z,10.66
2023-02-23T08:12:52.589Z,10.67
2023-02-23T08:15:19.332Z,10.63
2023-02-23T08:17:45.966Z,10.56
2023-02-23T08:20:12.726Z,10.62
2023-02-23T08:22:48.871Z,10.68
2023-02-23T08:25:17.409Z,10.69
2023-02-23T08:27:44.050Z,10.74
2023-02-23T08:30:11.535Z,10.74
2023-02-23T08:32:38.315Z,10.68
2023-02-23T08:35:05.630Z,10.72
2023-02-23T08:37:32.721Z,10.82
2023-02-23T08:40:00.606Z,10.89
2023-02-23T08:42:27.813Z,10.99
2023-02-23T08:44:54.564Z,11.06
2023-02-23T08:47:23.379Z,11.11
2023-02-23T08:49:51.014Z,11.24
2023-02-23T08:52:17.944Z,11.27
2023-02-23T08:54:44.591Z,11.18
2023-02-23T08:57:12.620Z,11.09
2023-02-23T08:59:41.162Z,11.23
2023-02-23T09:02:12.792Z,11.71
2023-02-23T09:04:41.888Z,11.97
2023-02-23T09:07:13.042Z,12.22
2023-02-23T09:09:39.783Z,12.43
2023-02-23T09:12:06.519Z,12.50
2023-02-23T09:14:33.451Z,12.45
2023-02-23T09:17:00.098Z,12.30
2023-02-23T09:19:27.529Z,12.31
2023-02-23T09:21:54.327Z,12.05
2023-02-23T09:24:21.723Z,12.02
2023-02-23T09:26:49.632Z,12.10
2023-02-23T09:29:16.326Z,12.43
2023-02-23T09:31:43.739Z,12.69
2023-02-23T09:34:12.583Z,13.30
2023-02-23T09:36:39.349Z,14.23
2023-02-23T09:39:05.954Z,14.46
2023-02-23T09:41:51.874Z,14.27
2023-02-23T09:44:51.240Z,14.65
2023-02-23T09:47:46.113Z,14.49
2023-02-23T09:50:22.546Z,14.76
2023-02-23T09:52:58.173Z,14.39
2023-02-23T09:55:26.420Z,14.19
2023-02-23T09:57:54.049Z,14.01
2023-02-23T10:00:27.396Z,13.56
2023-02-23T10:03:08.355Z,13.29
2023-02-23T10:05:43.873Z,13.25
2023-02-23T10:08:28.762Z,13.15
2023-02-23T10:11:02.899Z,12.84
2023-02-23T10:13:51.340Z,12.89
2023-02-23T10:16:38.550Z,12.86
2023-02-23T10:19:29.273Z,13.04
2023-02-23T10:22:03.333Z,12.91
2023-02-23T10:24:36.947Z,12.87
2023-02-23T10:27:10.284Z,12.71
2023-02-23T10:29:45.600Z,12.73
2023-02-23T10:32:22.863Z,12.66
2023-02-23T10:34:54.615Z,12.82
2023-02-23T10:37:21.604Z,12.95
2023-02-23T10:39:49.823Z,13.23
2023-02-23T10:42:21.836Z,13.33
2023-02-23T10:44:50.020Z,13.49
2023-02-23T10:47:22.365Z,13.20
2023-02-23T10:49:52.283Z,13.22
2023-02-23T10:52:27.523Z,13.21
2023-02-23T10:54:54.228Z,13.34
2023-02-23T10:57:27.796Z,13.41
2023-02-23T11:00:19.377Z,13.63
2023-02-23T11:02:47.686Z,14.13
2023-02-23T11:05:50.437Z,14.79
2023-02-23T11:08:25.069Z,15.13
2023-02-23T11:11:02.028Z,15.09
2023-02-23T11:13:36.017Z,14.90
2023-02-23T11:16:07.214Z,14.76
2023-02-23T11:18:34.019Z,15.09
2023-02-23T11:21:00.810Z,14.95
2023-02-23T11:23:35.695Z,14.70
2023-02-23T11:26:06.193Z,14.68
2023-02-23T11:28:43.297Z,14.60
2023-02-23T11:31:20.425Z,14.48
2023-02-23T11:33:48.302Z,14.34
2023-02-23T11:36:17.988Z,14.49
2023-02-23T11:38:47.320Z,14.52
2023-02-23T11:41:23.305Z,14.74
2023-02-23T11:44:02.827Z,14.76
2023-02-23T11:46:33.344Z,14.89
2023-02-23T11:49:14.695Z,15.18
2023-02-23T11:51:48.972Z,15.20
2023-02-23T11:54:27.369Z,14.91
2023-02-23T11:56:58.068Z,15.07
2023-02-23T11:59:45.175Z,15.29
2023-02-23T12:02:23.027Z,15.48
2023-02-23T12:04:53.964Z,15.73
2023-02-23T12:07:34.811Z,15.70
2023-02-23T12:10:12.734Z,15.43
2023-02-23T12:12:50.212Z,15.54
2023-02-23T12:15:48.410Z,15.02
2023-02-23T12:18:20.980Z,15.00
2023-02-23T12:20:50.646Z,14.93
2023-02-23T12:23:22.359Z,14.66
2023-02-23T12:26:00.549Z,14.59
2023-02-23T12:28:41.502Z,14.48
2023-02-23T12:31:25.971Z,14.33
2023-02-23T12:33:59.043Z,14.26
2023-02-23T12:36:35.348Z,14.25
2023-02-23T12:39:40.000Z,14.29
2023-02-23T12:42:15.674Z,13.85
2023-02-23T12:45:02.835Z,14.14
2023-02-23T12:47:37.046Z,13.96
2023-02-23T12:50:13.506Z,14.08
2023-02-23T12:52:50.953Z,14.24
2023-02-23T12:55:29.167Z,14.30
2023-02-23T12:58:08.015Z,14.27
2023-02-23T13:01:01.360Z,14.50
2023-02-23T13:03:50.005Z,14.72
2023-02-23T13:06:50.458Z,14.63
2023-02-23T13:09:51.497Z,14.37
2023-02-23T13:12:36.230Z,14.34
2023-02-23T13:15:34.362Z,14.20
2023-02-23T13:18:24.481Z,14.13
2023-02-23T13:21:39.493Z,14.17
2023-02-23T13:24:14.328Z,14.11
2023-02-23T13:27:01.732Z,14.01
2023-02-23T13:29:37.866Z,14.13
2023-02-23T13:32:09.808Z,14.09
2023-02-23T13:34:44.208Z,14.07
2023-02-23T13:37:14.811Z,14.08
2023-02-23T13:39:47.766Z,14.05
2023-02-23T13:42:40.847Z,14.11
2023-02-23T13:45:23.098Z,14.00
2023-02-23T13:47:52.884Z,14.19
2023-02-23T13:50:29.846Z,14.26
2023-02-23T13:53:04.774Z,14.31
2023-02-23T13:55:49.635Z,14.39
2023-02-23T13:58:28.862Z,14.24
2023-02-23T14:01:16.513Z,14.24
2023-02-23T14:04:04.196Z,14.16
2023-02-23T14:06:34.150Z,14.17
2023-02-23T14:09:09.612Z,14.13
2023-02-23T14:11:53.552Z,13.98
2023-02-23T14:14:32.849Z,14.00
2023-02-23T14:17:14.733Z,14.04
2023-02-23T14:19:43.137Z,13.95
2023-02-23T14:22:18.436Z,13.90
2023-02-23T14:24:45.561Z,13.84
2023-02-23T14:27:42.574Z,14.06
2023-02-23T14:30:12.235Z,14.12
2023-02-23T14:32:42.004Z,14.05
2023-02-23T14:35:33.596Z,14.05
2023-02-23T14:38:24.853Z,14.12
2023-02-23T14:40:54.637Z,13.88
2023-02-23T14:43:38.154Z,13.89
2023-02-23T14:46:13.139Z,13.90
2023-02-23T14:48:44.632Z,13.77
2023-02-23T14:51:24.850Z,13.85
2023-02-23T14:53:53.717Z,13.84
2023-02-23T14:56:24.686Z,13.80
2023-02-23T14:58:54.663Z,13.89
2023-02-23T15:01:39.517Z,13.99
2023-02-23T15:04:16.365Z,13.88
2023-02-23T15:06:46.871Z,13.90
2023-02-23T15:09:30.102Z,13.97
2023-02-23T15:11:59.240Z,13.99
2023-02-23T15:14:28.166Z,13.91
2023-02-23T15:16:56.606Z,13.93
2023-02-23T15:19:33.523Z,14.00
2023-02-23T15:22:02.057Z,14.01
2023-02-23T15:24:40.763Z,14.00
2023-02-23T15:27:16.568Z,13.90
2023-02-23T15:29:43.431Z,13.84
2023-02-23T15:32:16.807Z,13.81
2023-02-23T15:34:43.645Z,13.70
2023-02-23T15:37:20.168Z,13.76
2023-02-23T15:39:56.899Z,13.85
2023-02-23T15:42:36.280Z,13.77
2023-02-23T15:45:11.608Z,13.77
2023-02-23T15:47:38.408Z,13.84
2023-02-23T15:50:16.495Z,13.87
2023-02-23T15:52:50.307Z,13.92
2023-02-23T15:55:29.892Z,13.89
2023-02-23T15:57:59.076Z,13.89
2023-02-23T16:00:44.826Z,13.81
2023-02-23T16:03:30.561Z,13.82
2023-02-23T16:06:19.171Z,13.78
2023-02-23T16:09:22.177Z,13.69
2023-02-23T16:12:08.933Z,13.81
2023-02-23T16:14:45.053Z,13.84
2023-02-23T16:17:24.216Z,13.83
2023-02-23T16:19:51.395Z,13.78
2023-02-23T16:22:27.038Z,13.80
2023-02-23T16:25:00.102Z,13.69
2023-02-23T16:27:28.639Z,13.78
2023-02-23T16:30:04.662Z,13.69
2023-02-23T16:32:37.762Z,13.75
2023-02-23T16:35:19.642Z,13.70
2023-02-23T16:38:01.059Z,13.69
2023-02-23T16:40:28.521Z,13.61
2023-02-23T16:42:59.566Z,13.55
2023-02-23T16:45:27.251Z,13.54
2023-02-23T16:47:53.962Z,13.53
2023-02-23T16:50:24.376Z,13.39
2023-02-23T16:52:53.088Z,13.46
2023-02-23T16:55:26.000Z,13.46
2023-02-23T16:58:03.793Z,13.32
2023-02-23T17:00:33.402Z,13.27
2023-02-23T17:03:01.017Z,13.33
2023-02-23T17:05:28.718Z,13.38
2023-02-23T17:07:57.756Z,13.21
2023-02-23T17:10:33.332Z,13.31
2023-02-23T17:13:05.727Z,13.30
2023-02-23T17:15:36.556Z,13.32
2023-02-23T17:18:05.206Z,13.38
2023-02-23T17:20:32.665Z,13.32
2023-02-23T17:23:01.374Z,13.30
2023-02-23T17:25:28.719Z,13.24
2023-02-23T17:27:57.259Z,13.15
2023-02-23T17:30:25.426Z,13.13
2023-02-23T17:32:54.549Z,13.21
2023-02-23T17:35:21.991Z,13.13
2023-02-23T17:37:49.000Z,13.20
2023-02-23T17:40:28.902Z,13.17
2023-02-23T17:42:57.738Z,13.18
2023-02-23T17:45:24.846Z,13.16
2023-02-23T17:47:51.767Z,13.23
2023-02-23T17:50:22.555Z,13.11
2023-02-23T17:52:50.161Z,13.11
2023-02-23T17:55:17.765Z,13.06
2023-02-23T17:57:45.214Z,13.05
2023-02-23T18:00:13.900Z,13.03
2023-02-23T18:02:42.801Z,13.03
2023-02-23T18:05:11.299Z,13.03
2023-02-23T18:07:38.379Z,12.94
2023-02-23T18:10:06.242Z,12.87
2023-02-23T18:12:34.294Z,12.96
2023-02-23T18:15:01.359Z,12.97
2023-02-23T18:17:28.522Z,12.92
2023-02-23T18:19:55.403Z,12.78
2023-02-23T18:22:22.065Z,12.85
2023-02-23T18:24:48.679Z,12.71
2023-02-23T18:27:15.441Z,12.86
2023-02-23T18:29:42.119Z,12.86
2023-02-23T18:32:08.955Z,12.84
2023-02-23T18:34:36.334Z,12.86
2023-02-23T18:37:04.114Z,12.87
2023-02-23T18:39:32.740Z,12.84
2023-02-23T18:42:00.545Z,12.78
2023-02-23T18:44:27.566Z,12.77
2023-02-23T18:46:54.845Z,12.67
2023-02-23T18:49:23.922Z,12.48
2023-02-23T18:51:51.375Z,12.63
2023-02-23T18:54:18.590Z,12.69
2023-02-23T18:56:47.427Z,12.55
2023-02-23T18:59:16.159Z,12.61
2023-02-23T19:01:45.358Z,12.61
2023-02-23T19:04:13.176Z,12.53
2023-02-23T19:06:43.707Z,12.56
2023-02-23T19:09:12.423Z,12.54
2023-02-23T19:11:40.718Z,12.59
2023-02-23T19:14:13.393Z,12.60
2023-02-23T19:16:41.174Z,12.60
2023-02-23T19:19:08.871Z,12.58
2023-02-23T19:21:36.395Z,12.43
2023-02-23T19:24:04.856Z,12.54
2023-02-23T19:26:33.652Z,12.46
2023-02-23T19:29:00.524Z,12.44
2023-02-23T19:31:28.351Z,12.46
2023-02-23T19:33:57.032Z,12.43
2023-02-23T19:36:29.648Z,12.45
2023-02-23T19:39:05.661Z,12.29
2023-02-23T19:41:33.841Z,12.24
2023-02-23T19:44:00.951Z,12.24
2023-02-23T19:46:27.982Z,12.29
2023-02-23T19:48:56.053Z,12.19
2023-02-23T19:51:23.805Z,12.33
2023-02-23T19:53:53.623Z,12.42
2023-02-23T19:56:22.200Z,12.40
2023-02-23T19:58:49.346Z,12.32
2023-02-23T20:01:18.812Z,12.34
2023-02-23T20:03:49.453Z,12.31
2023-02-23T20:06:17.650Z,12.32
2023-02-23T20:08:45.318Z,12.27
2023-02-23T20:11:12.165Z,12.21
2023-02-23T20:13:39.154Z,12.03
2023-02-23T20:16:11.817Z,11.95
2023-02-23T20:18:40.123Z,12.00
2023-02-23T20:21:18.492Z,12.00
2023-02-23T20:23:47.220Z,12.13
2023-02-23T20:26:19.906Z,12.06
2023-02-23T20:28:46.936Z,12.15
2023-02-23T20:31:18.088Z,12.16
2023-02-23T20:33:44.927Z,12.12
2023-02-23T20:36:14.705Z,11.91
2023-02-23T20:38:42.244Z,11.89
2023-02-23T20:41:08.985Z,11.91
2023-02-23T20:43:37.619Z,11.92
2023-02-23T20:46:04.840Z,12.00
2023-02-23T20:48:34.477Z,11.87
2023-02-23T20:51:01.820Z,11.91
2023-02-23T20:53:29.826Z,12.01
2023-02-23T20:55:56.797Z,12.02
2023-02-23T20:58:24.910Z,12.02
2023-02-23T21:00:56.962Z,12.00
2023-02-23T21:03:25.258Z,11.95
2023-02-23T21:05:52.557Z,12.06
2023-02-23T21:08:19.884Z,11.88
2023-02-23T21:10:48.666Z,12.06
2023-02-23T21:13:16.633Z,11.94
2023-02-23T21:15:44.705Z,11.94
2023-02-23T21:18:11.787Z,12.00
2023-02-23T21:20:39.507Z,12.12
2023-02-23T21:23:06.377Z,11.95
2023-02-23T21:25:33.158Z,11.97
2023-02-23T21:28:02.722Z,11.81
2023-02-23T21:30:30.061Z,11.91
2023-02-23T21:32:57.794Z,11.96
2023-02-23T21:35:24.732Z,11.86
2023-02-23T21:37:51.834Z,11.70
2023-02-23T21:40:20.863Z,11.74
2023-02-23T21:42:48.084Z,11.72
2023-02-23T21:45:15.282Z,11.83
2023-02-23T21:47:44.658Z,11.92
2023-02-23T21:50:15.560Z,11.89
2023-02-23T21:52:43.884Z,11.80
2023-02-23T21:55:21.442Z,11.80
2023-02-23T21:57:49.228Z,11.64
2023-02-23T22:00:16.364Z,11.52
2023-02-23T22:02:46.510Z,11.51
2023-02-23T22:05:15.486Z,11.48
2023-02-23T22:07:48.085Z,11.46
2023-02-23T22:10:14.955Z,11.49
2023-02-23T22:12:41.761Z,11.21
2023-02-23T22:15:10.238Z,11.21
2023-02-23T22:17:38.578Z,11.19
2023-02-23T22:20:07.169Z,11.03
2023-02-23T22:22:37.112Z,11.15
2023-02-23T22:25:04.443Z,11.16
2023-02-23T22:27:31.817Z,11.23
2023-02-23T22:30:01.846Z,11.16
2023-02-23T22:32:33.375Z,11.21
2023-02-23T22:35:00.950Z,11.14
2023-02-23T22:37:31.852Z,11.22
2023-02-23T22:40:01.712Z,11.17
2023-02-23T22:42:30.307Z,11.10
2023-02-23T22:44:57.111Z,11.09
2023-02-23T22:47:24.300Z,11.00
2023-02-23T22:49:51.092Z,10.91
2023-02-23T22:52:17.775Z,10.82
2023-02-23T22:54:45.649Z,10.94
2023-02-23T22:57:13.168Z,10.93
2023-02-23T22:59:39.856Z,10.90
2023-02-23T23:02:06.725Z,10.95
2023-02-23T23:04:34.427Z,10.95
2023-02-23T23:07:01.601Z,10.76
2023-02-23T23:09:28.382Z,10.80
2023-02-23T23:11:56.599Z,10.85
2023-02-23T23:14:23.593Z,10.72
2023-02-23T23:16:50.290Z,10.61
2023-02-23T23:19:23.679Z,10.70
2023-02-23T23:21:56.132Z,10.44
2023-02-23T23:24:24.431Z,10.51
2023-02-23T23:26:55.439Z,10.42
2023-02-23T23:29:23.592Z,10.62
2023-02-23T23:31:51.639Z,10.62
2023-02-23T23:34:21.605Z,10.70
2023-02-23T23:36:49.784Z,10.63
2023-02-23T23:39:18.245Z,10.72
2023-02-23T23:41:47.804Z,10.63
2023-02-23T23:44:17.261Z,10.67
2023-02-23T23:46:45.688Z,10.69
2023-02-23T23:49:18.384Z,10.77
2023-02-23T23:51:50.159Z,10.59
2023-02-23T23:54:23.500Z,10.68
2023-02-23T23:56:50.721Z,10.65
2023-02-23T23:59:20.261Z,10.77
